Tole Mour — WDA5625 — position and weather

sailwx.info

Track history (hours):
 
Tides and Currents Weather Stations Pressure Air Temp Water Temp Dewpoint Dewpoint Depression Visibility Wind Speed Wind Dir Waves Ship Positions

Tole Mour (United States)

The largest working tall ship on the west coast of North America. Former callsign WUV7222.

Ship's website: http://www.tolemour.org/

More information available from US FCC via Universal Licensing System and Coast Guard Vessel Documentation Center.

Last reported at 2014-Aug-27 14:33 UTC. Time now 2014-Aug-27 15:11 UTC.
Position N 32°51' W 117°16'.

Type: Ship. MMSI: 366822140.

Date/timePositionNaut miles runAvg speedWind from/ knotsBaromVisibWave heightAir tempDewpointWater temp
2014-Aug-27 14:33N 32°51' W 117°16'0 0.0
2014-Aug-27 13:33N 32°51' W 117°16'0 0.0
2014-Aug-27 12:33N 32°51' W 117°16'0 0.0
2014-Aug-27 11:33N 32°51' W 117°16'0 0.0
2014-Aug-27 09:30N 32°51' W 117°16'0 0.1
2014-Aug-27 08:33N 32°51' W 117°16'0 0.0
2014-Aug-27 07:33N 32°51' W 117°16'0 0.0
2014-Aug-27 06:33N 32°51' W 117°16'0 0.0
2014-Aug-27 05:30N 32°51' W 117°16'0 0.1
2014-Aug-27 04:33N 32°51' W 117°16'0 0.0
2014-Aug-27 03:33N 32°51' W 117°16'0 0.1
2014-Aug-27 02:33N 32°51' W 117°16'0 0.0
2014-Aug-27 01:33N 32°51' W 117°16'0 0.0
2014-Aug-27 00:33N 32°51' W 117°16'0 0.0
2014-Aug-26 23:33N 32°51' W 117°16'0 0.0
2014-Aug-26 22:33N 32°51' W 117°16'0 0.0
2014-Aug-26 21:30N 32°51' W 117°16'0 0.0
2014-Aug-26 20:33N 32°51' W 117°16'0 0.0
2014-Aug-26 19:33N 32°51' W 117°16'2 2.1
2014-Aug-26 18:33N 32°50' W 117°19'6 5.7
2014-Aug-26 17:33N 32°45' W 117°18'7 6.7
2014-Aug-26 16:33N 32°38' W 117°17'4 3.8
2014-Aug-26 15:33N 32°37' W 117°21'5 5.3
2014-Aug-26 14:33N 32°36' W 117°27'6 6.0
2014-Aug-26 13:33N 32°34' W 117°34'6 5.7
2014-Aug-26 12:33N 32°33' W 117°41'7 6.8
2014-Aug-26 11:33N 32°31' W 117°49'7 6.5
2014-Aug-26 10:33N 32°29' W 117°56'6 5.8
2014-Aug-26 09:29N 32°27' W 118°03'4 3.6
2014-Aug-26 08:26N 32°27' W 118°08'4 4.2
2014-Aug-26 07:33N 32°31' W 118°09'5 4.6
2014-Aug-26 06:32N 32°35' W 118°10'5 5.2
2014-Aug-26 05:33N 32°41' W 118°11'4 3.9
2014-Aug-26 04:33N 32°44' W 118°11'6 6.0
2014-Aug-26 03:33N 32°50' W 118°12'8 7.5
2014-Aug-26 02:33N 32°58' W 118°13'9 8.5
2014-Aug-26 01:33N 33°06' W 118°14'10 9.8
2014-Aug-26 00:33N 33°16' W 118°16'5 4.9
2014-Aug-25 23:33N 33°21' W 118°16'8 7.7
2014-Aug-25 22:33N 33°29' W 118°17'9 8.4
2014-Aug-25 21:31N 33°37' W 118°17'5 5.3
2014-Aug-25 20:31N 33°42' W 118°20'4 0.2
2014-Aug-25 04:25N 33°45' W 118°17'0 0.0
2014-Aug-25 01:22N 33°45' W 118°17'0 0.0
2014-Aug-24 23:04N 33°45' W 118°17'0 0.0
2014-Aug-24 22:31N 33°45' W 118°17'0 0.0
2014-Aug-24 03:13N 33°45' W 118°17'0 0.0
2014-Aug-24 02:25N 33°45' W 118°17'0 0.0
2014-Aug-24 01:31N 33°45' W 118°17'0 0.0
2014-Aug-24 00:13N 33°45' W 118°17'0 0.0
2014-Aug-22 22:31N 33°45' W 118°17'  
2014-Aug-18 23:24N 34°06' W 119°14'5 6.2
2014-Aug-18 22:32N 34°01' W 119°15'2 2.0
2014-Aug-18 21:33N 33°59' W 119°16'5 4.0
2014-Aug-18 20:18N 34°01' W 119°22'0 0.0
2014-Aug-18 19:21N 34°01' W 119°22'0 0.0
2014-Aug-18 13:09N 34°01' W 119°22'0 0.0
2014-Aug-18 10:33N 34°01' W 119°22'0 0.0
2014-Aug-18 09:30N 34°01' W 119°22'0 0.0
2014-Aug-18 08:30N 34°01' W 119°22'0 0.0
2014-Aug-18 07:24N 34°01' W 119°22'0 0.0
2014-Aug-18 06:06N 34°01' W 119°22'0 0.0
2014-Aug-18 05:18N 34°01' W 119°22'0 0.0
2014-Aug-18 04:06N 34°01' W 119°22'0 0.0
2014-Aug-18 02:33N 34°01' W 119°22'0 0.0
2014-Aug-18 00:09N 34°01' W 119°21'  
Track history (hours):
 
Tides and Currents Weather Stations Pressure Air Temp Water Temp Dewpoint Dewpoint Depression Visibility Wind Speed Wind Dir Waves Ship Positions

Tole Mour (United States)

The largest working tall ship on the west coast of North America. Former callsign WUV7222.

Ship's website: http://www.tolemour.org/

More information available from US FCC via Universal Licensing System and Coast Guard Vessel Documentation Center.

Last reported at 2014-Aug-27 14:33 UTC. Time now 2014-Aug-27 15:11 UTC.
Position N 32°51' W 117°16'.

Type: Ship. MMSI: 366822140.

Date/timePositionNaut miles runAvg speedWind from/ knotsBaromVisibWave heightAir tempDewpointWater temp
2014-Aug-27 14:33N 32°51' W 117°16'0 0.0
2014-Aug-27 13:33N 32°51' W 117°16'0 0.0
2014-Aug-27 12:33N 32°51' W 117°16'0 0.0
2014-Aug-27 11:33N 32°51' W 117°16'0 0.0
2014-Aug-27 09:30N 32°51' W 117°16'0 0.1
2014-Aug-27 08:33N 32°51' W 117°16'0 0.0
2014-Aug-27 07:33N 32°51' W 117°16'0 0.0
2014-Aug-27 06:33N 32°51' W 117°16'0 0.0
2014-Aug-27 05:30N 32°51' W 117°16'0 0.1
2014-Aug-27 04:33N 32°51' W 117°16'0 0.0
2014-Aug-27 03:33N 32°51' W 117°16'0 0.1
2014-Aug-27 02:33N 32°51' W 117°16'0 0.0
2014-Aug-27 01:33N 32°51' W 117°16'0 0.0
2014-Aug-27 00:33N 32°51' W 117°16'0 0.0
2014-Aug-26 23:33N 32°51' W 117°16'0 0.0
2014-Aug-26 22:33N 32°51' W 117°16'0 0.0
2014-Aug-26 21:30N 32°51' W 117°16'0 0.0
2014-Aug-26 20:33N 32°51' W 117°16'0 0.0
2014-Aug-26 19:33N 32°51' W 117°16'2 2.1
2014-Aug-26 18:33N 32°50' W 117°19'6 5.7
2014-Aug-26 17:33N 32°45' W 117°18'7 6.7
2014-Aug-26 16:33N 32°38' W 117°17'4 3.8
2014-Aug-26 15:33N 32°37' W 117°21'5 5.3
2014-Aug-26 14:33N 32°36' W 117°27'6 6.0
2014-Aug-26 13:33N 32°34' W 117°34'6 5.7
2014-Aug-26 12:33N 32°33' W 117°41'7 6.8
2014-Aug-26 11:33N 32°31' W 117°49'7 6.5
2014-Aug-26 10:33N 32°29' W 117°56'6 5.8
2014-Aug-26 09:29N 32°27' W 118°03'4 3.6
2014-Aug-26 08:26N 32°27' W 118°08'4 4.2
2014-Aug-26 07:33N 32°31' W 118°09'5 4.6
2014-Aug-26 06:32N 32°35' W 118°10'5 5.2
2014-Aug-26 05:33N 32°41' W 118°11'4 3.9
2014-Aug-26 04:33N 32°44' W 118°11'6 6.0
2014-Aug-26 03:33N 32°50' W 118°12'8 7.5
2014-Aug-26 02:33N 32°58' W 118°13'9 8.5
2014-Aug-26 01:33N 33°06' W 118°14'10 9.8
2014-Aug-26 00:33N 33°16' W 118°16'5 4.9
2014-Aug-25 23:33N 33°21' W 118°16'8 7.7
2014-Aug-25 22:33N 33°29' W 118°17'9 8.4
2014-Aug-25 21:31N 33°37' W 118°17'5 5.3
2014-Aug-25 20:31N 33°42' W 118°20'4 0.2
2014-Aug-25 04:25N 33°45' W 118°17'0 0.0
2014-Aug-25 01:22N 33°45' W 118°17'0 0.0
2014-Aug-24 23:04N 33°45' W 118°17'0 0.0
2014-Aug-24 22:31N 33°45' W 118°17'0 0.0
2014-Aug-24 03:13N 33°45' W 118°17'0 0.0
2014-Aug-24 02:25N 33°45' W 118°17'0 0.0
2014-Aug-24 01:31N 33°45' W 118°17'0 0.0
2014-Aug-24 00:13N 33°45' W 118°17'0 0.0
2014-Aug-22 22:31N 33°45' W 118°17'  
2014-Aug-18 23:24N 34°06' W 119°14'5 6.2
2014-Aug-18 22:32N 34°01' W 119°15'2 2.0
2014-Aug-18 21:33N 33°59' W 119°16'5 4.0
2014-Aug-18 20:18N 34°01' W 119°22'0 0.0
2014-Aug-18 19:21N 34°01' W 119°22'0 0.0
2014-Aug-18 13:09N 34°01' W 119°22'0 0.0
2014-Aug-18 10:33N 34°01' W 119°22'0 0.0
2014-Aug-18 09:30N 34°01' W 119°22'0 0.0
2014-Aug-18 08:30N 34°01' W 119°22'0 0.0
2014-Aug-18 07:24N 34°01' W 119°22'0 0.0
2014-Aug-18 06:06N 34°01' W 119°22'0 0.0
2014-Aug-18 05:18N 34°01' W 119°22'0 0.0
2014-Aug-18 04:06N 34°01' W 119°22'0 0.0
2014-Aug-18 02:33N 34°01' W 119°22'0 0.0
2014-Aug-18 00:09N 34°01' W 119°21'  

Dump ship's entire track history